Time;durP1;ratioP1;P1;durP2;ratioP2;P2;SDS_P1;SDS_P2;PMS_P1;PMS_P2;Temp;Humidity;BMP_temperature;BMP_pressure;BME280_temperature;BME280_humidity;BME280_pressure;Samples;Min_cycle;Max_cycle;Signal;HPM_P1;HPM_P2
2022/12/20 00:01:12;;;;;;;45.80;16.20;;;;;;;-0.60;98.53;100186.84;99406;1369;22857;-29
2022/12/20 00:03:38;;;;;;;30.30;14.80;;;;;;;-0.61;98.83;100182.02;99507;1369;22722;-33
2022/12/20 00:06:04;;;;;;;40.00;15.10;;;;;;;-0.58;99.35;100186.12;99593;1351;23508;-30
2022/12/20 00:08:30;;;;;;;34.90;14.70;;;;;;;-0.70;99.84;100188.77;99519;1350;22847;-30
2022/12/20 00:10:55;;;;;;;37.10;14.60;;;;;;;-0.64;100.00;100183.59;99550;1363;22596;-30
2022/12/20 00:13:21;;;;;;;24.90;11.30;;;;;;;-0.73;100.00;100191.97;99501;1350;22731;-33
2022/12/20 00:15:46;;;;;;;39.20;16.90;;;;;;;-0.62;100.00;100190.30;99532;1368;23083;-33
2022/12/20 00:18:12;;;;;;;31.30;15.00;;;;;;;-0.62;100.00;100191.89;99167;1369;22952;-29
2022/12/20 00:20:37;;;;;;;29.80;11.80;;;;;;;-0.62;100.00;100191.21;99493;1354;22725;-29
2022/12/20 00:23:03;;;;;;;30.60;13.30;;;;;;;-0.62;100.00;100193.15;99494;1365;22599;-33
2022/12/20 00:25:28;;;;;;;28.40;12.40;;;;;;;-0.59;100.00;100193.63;99434;1353;23094;-34
2022/12/20 00:27:54;;;;;;;43.70;16.00;;;;;;;-0.60;100.00;100188.95;99526;1361;25050;-33
2022/12/20 00:30:20;;;;;;;23.90;9.40;;;;;;;-0.58;100.00;100184.59;99048;1356;22976;-34
2022/12/20 00:32:45;;;;;;;35.20;15.10;;;;;;;-0.57;100.00;100190.64;99465;1350;22696;-33
2022/12/20 00:35:11;;;;;;;46.70;18.40;;;;;;;-0.55;100.00;100195.43;99495;1357;22732;-31
2022/12/20 00:37:36;;;;;;;40.10;13.30;;;;;;;-0.57;100.00;100193.48;99573;1369;24276;-33
2022/12/20 00:40:03;;;;;;;32.00;13.20;;;;;;;-0.54;100.00;100195.41;99527;1353;25033;-33
2022/12/20 00:42:28;;;;;;;32.40;14.20;;;;;;;-0.54;100.00;100182.35;99474;1366;22891;-31
2022/12/20 00:44:54;;;;;;;42.10;16.40;;;;;;;-0.50;100.00;100180.99;99548;1354;23977;-30
2022/12/20 00:47:19;;;;;;;37.50;14.90;;;;;;;-0.56;100.00;100177.06;99474;1369;25366;-30
2022/12/20 00:49:46;;;;;;;17.10;7.80;;;;;;;-0.53;100.00;100169.95;99531;1353;22853;-30
2022/12/20 00:52:11;;;;;;;32.90;13.40;;;;;;;-0.47;100.00;100173.39;99517;1367;23083;-34
2022/12/20 00:54:37;;;;;;;38.10;14.80;;;;;;;-0.42;100.00;100177.87;99537;1350;22775;-34
2022/12/20 00:57:02;;;;;;;31.70;11.90;;;;;;;-0.39;100.00;100176.08;99471;1353;23206;-35
2022/12/20 00:59:28;;;;;;;37.90;14.00;;;;;;;-0.39;100.00;100175.55;99452;1350;24452;-34
2022/12/20 01:01:53;;;;;;;33.70;13.90;;;;;;;-0.42;100.00;100171.83;99531;1358;25061;-30
2022/12/20 01:04:19;;;;;;;18.50;5.80;;;;;;;-0.32;100.00;100168.52;99446;1352;22710;-30
2022/12/20 01:06:45;;;;;;;26.20;12.80;;;;;;;-0.26;100.00;100165.05;99598;1353;24358;-35
2022/12/20 01:09:10;;;;;;;34.40;12.40;;;;;;;-0.33;100.00;100161.88;99109;1369;22986;-31
2022/12/20 01:11:37;;;;;;;30.00;11.50;;;;;;;-0.33;100.00;100161.75;99148;1368;22845;-34
2022/12/20 01:14:10;;;;;;;28.50;11.20;;;;;;;-0.22;99.95;100166.42;99458;1357;22839;-34
2022/12/20 01:16:37;;;;;;;29.50;10.40;;;;;;;-0.31;99.96;100160.70;99553;1351;22725;-30
2022/12/20 01:19:03;;;;;;;35.40;13.50;;;;;;;-0.33;99.44;100161.04;99546;1354;22701;-35
2022/12/20 01:21:29;;;;;;;26.30;11.20;;;;;;;-0.40;99.47;100152.87;98976;1353;23083;-31
2022/12/20 01:23:55;;;;;;;26.30;11.90;;;;;;;-0.43;99.46;100150.09;99457;1355;22869;-30
2022/12/20 01:26:22;;;;;;;23.10;8.60;;;;;;;-0.50;99.94;100143.73;99450;1369;24472;-32
2022/12/20 01:28:48;;;;;;;25.80;9.70;;;;;;;-0.53;99.97;100146.55;99556;1351;22616;-34
2022/12/20 01:31:15;;;;;;;21.40;11.20;;;;;;;-0.46;99.85;100140.28;99484;1354;23191;-30
2022/12/20 01:33:41;;;;;;;35.50;14.80;;;;;;;-0.54;99.71;100136.25;99072;1369;23070;-31
2022/12/20 01:36:10;;;;;;;34.00;12.00;;;;;;;-0.55;100.00;100130.66;99518;1355;22691;-30
2022/12/20 01:38:36;;;;;;;26.40;10.00;;;;;;;-0.54;99.99;100124.69;99597;1350;23195;-35
2022/12/20 01:41:02;;;;;;;42.20;14.90;;;;;;;-0.50;100.00;100126.31;99437;1350;24464;-33
2022/12/20 01:43:46;;;;;;;27.70;10.80;;;;;;;-0.60;100.00;100130.36;99418;1362;23185;-29
2022/12/20 01:46:12;;;;;;;34.50;12.80;;;;;;;-0.64;100.00;100135.73;99495;1348;22649;-34
2022/12/20 01:48:38;;;;;;;35.30;15.70;;;;;;;-0.65;100.00;100136.88;99539;1369;22834;-33
2022/12/20 01:51:04;;;;;;;14.20;5.30;;;;;;;-0.62;100.00;100130.16;99498;1361;23079;-29
2022/12/20 01:53:30;;;;;;;30.40;12.70;;;;;;;-0.62;100.00;100145.79;99515;1353;22867;-34
2022/12/20 01:55:55;;;;;;;30.70;12.80;;;;;;;-0.62;100.00;100137.73;99471;1349;24924;-29
2022/12/20 01:58:20;;;;;;;26.50;9.60;;;;;;;-0.60;100.00;100134.41;99467;1347;26515;-29
2022/12/20 02:00:46;;;;;;;32.10;12.30;;;;;;;-0.64;100.00;100135.02;99437;1364;22843;-30
2022/12/20 02:03:12;;;;;;;22.50;7.30;;;;;;;-0.64;100.00;100123.59;99574;1369;23282;-33
2022/12/20 02:05:41;;;;;;;25.40;12.70;;;;;;;-0.70;100.00;100127.88;99509;1354;22732;-30
2022/12/20 02:08:06;;;;;;;33.10;12.20;;;;;;;-0.64;99.99;100131.16;99098;1370;22851;-31
2022/12/20 02:10:43;;;;;;;36.90;15.70;;;;;;;-0.66;99.95;100125.00;99542;1369;23091;-33
2022/12/20 02:13:12;;;;;;;29.20;12.00;;;;;;;-0.77;100.00;100133.61;99525;1347;23226;-29
2022/12/20 02:15:53;;;;;;;30.60;14.60;;;;;;;-0.82;100.00;100136.43;99473;1360;22598;-33
2022/12/20 02:18:26;;;;;;;32.10;13.20;;;;;;;-0.78;100.00;100145.00;99489;1351;23318;-29
2022/12/20 02:21:11;;;;;;;32.00;11.90;;;;;;;-0.78;100.00;100142.68;99550;1366;22733;-29
2022/12/20 02:23:53;;;;;;;44.60;14.70;;;;;;;-0.80;100.00;100144.05;99439;1369;24370;-30
2022/12/20 02:26:38;;;;;;;28.10;12.00;;;;;;;-0.82;100.00;100136.16;99518;1350;23099;-34
2022/12/20 02:29:27;;;;;;;25.40;10.40;;;;;;;-0.82;100.00;100144.19;99534;1351;22692;-30
2022/12/20 02:31:59;;;;;;;23.00;9.70;;;;;;;-0.81;100.00;100150.96;99053;1346;22723;-34
2022/12/20 02:34:24;;;;;;;31.30;13.00;;;;;;;-0.84;100.00;100145.56;99505;1354;23192;-30
2022/12/20 02:36:50;;;;;;;31.80;11.90;;;;;;;-0.84;100.00;100140.82;99516;1350;22677;-34
2022/12/20 02:39:16;;;;;;;33.30;14.70;;;;;;;-0.79;99.70;100138.35;99590;1350;22733;-30
2022/12/20 02:41:49;;;;;;;29.80;13.10;;;;;;;-0.71;99.03;100136.94;99106;1363;22847;-29
2022/12/20 02:47:02;;;;;;;34.30;15.60;;;;;;;-0.74;98.59;100128.36;99458;1359;24292;-34
2022/12/20 02:49:29;;;;;;;26.80;11.20;;;;;;;-0.80;98.87;100126.16;99485;1352;22867;-34
2022/12/20 02:51:55;;;;;;;32.50;12.10;;;;;;;-0.80;98.96;100121.91;99527;1351;22698;-33
2022/12/20 02:54:20;;;;;;;34.70;14.10;;;;;;;-0.73;98.73;100115.45;99557;1369;22851;-30
2022/12/20 02:56:51;;;;;;;21.00;10.90;;;;;;;-0.77;98.63;100113.04;99397;1352;22696;-30
2022/12/20 02:59:20;;;;;;;25.50;10.90;;;;;;;-0.83;99.15;100106.08;99475;1347;22825;-34
2022/12/20 03:01:48;;;;;;;36.50;12.40;;;;;;;-0.87;99.20;100099.39;99471;1369;22722;-34
2022/12/20 03:04:15;;;;;;;37.80;15.20;;;;;;;-0.82;99.15;100101.86;99507;1351;23098;-30
2022/12/20 03:06:55;;;;;;;37.10;12.50;;;;;;;-0.82;98.82;100108.35;99500;1350;24502;-30
2022/12/20 03:09:20;;;;;;;36.70;14.00;;;;;;;-0.83;98.62;100107.92;99070;1369;22721;-34
2022/12/20 03:11:46;;;;;;;35.40;13.00;;;;;;;-0.84;99.02;100102.98;99460;1351;24457;-34
2022/12/20 03:14:11;;;;;;;35.30;13.30;;;;;;;-0.85;99.38;100094.69;99538;1350;22883;-29
2022/12/20 03:16:37;;;;;;;31.80;13.00;;;;;;;-0.81;99.11;100095.08;99423;1366;23159;-34
2022/12/20 03:19:02;;;;;;;26.90;11.40;;;;;;;-0.81;98.67;100094.19;99426;1349;22735;-34
2022/12/20 03:21:28;;;;;;;32.90;13.90;;;;;;;-0.82;98.64;100089.73;98991;1355;22734;-34
2022/12/20 03:23:53;;;;;;;29.00;11.50;;;;;;;-0.81;98.33;100086.62;99092;1350;22847;-34
2022/12/20 03:26:19;;;;;;;35.30;13.60;;;;;;;-0.83;97.78;100080.27;99548;1370;23207;-34
2022/12/20 03:28:44;;;;;;;34.50;12.00;;;;;;;-0.83;98.14;100081.16;99009;1353;25365;-34
2022/12/20 03:31:10;;;;;;;37.20;14.60;;;;;;;-0.84;98.01;100067.73;98992;1369;23045;-29
2022/12/20 03:33:36;;;;;;;29.10;12.50;;;;;;;-0.80;97.46;100062.63;99566;1367;22941;-30
2022/12/20 03:36:01;;;;;;;31.30;13.60;;;;;;;-0.89;97.97;100057.14;99595;1366;22606;-33
2022/12/20 03:38:27;;;;;;;33.00;13.50;;;;;;;-0.91;97.66;100051.98;99558;1350;22595;-31
2022/12/20 03:40:52;;;;;;;29.60;9.40;;;;;;;-0.92;97.62;100051.92;99501;1353;22610;-33
2022/12/20 03:43:18;;;;;;;33.10;13.00;;;;;;;-0.95;97.87;100049.08;99552;1354;22735;-34
2022/12/20 03:45:44;;;;;;;31.70;11.50;;;;;;;-0.97;98.00;100046.77;99473;1366;22729;-29
2022/12/20 03:48:09;;;;;;;35.00;12.60;;;;;;;-0.99;97.79;100040.58;99455;1362;23352;-28
2022/12/20 03:50:36;;;;;;;36.60;13.30;;;;;;;-0.96;97.67;100040.43;99522;1351;22851;-33
2022/12/20 03:53:01;;;;;;;37.70;14.10;;;;;;;-0.94;97.38;100040.10;99437;1353;25252;-33
2022/12/20 03:55:27;;;;;;;39.90;13.70;;;;;;;-0.92;97.33;100034.14;99498;1350;22599;-30
2022/12/20 03:57:52;;;;;;;29.40;12.80;;;;;;;-0.91;96.95;100041.80;99497;1369;24357;-29
2022/12/20 04:00:19;;;;;;;36.10;13.80;;;;;;;-1.01;97.35;100050.95;99439;1370;23070;-33
2022/12/20 04:02:45;;;;;;;33.00;12.90;;;;;;;-0.97;97.59;100056.83;99563;1369;23069;-32
2022/12/20 04:05:10;;;;;;;29.60;11.10;;;;;;;-0.98;97.42;100053.52;99081;1369;23034;-33
2022/12/20 04:07:36;;;;;;;35.90;12.00;;;;;;;-0.97;97.54;100050.98;99084;1369;24464;-31
2022/12/20 04:10:02;;;;;;;25.80;9.70;;;;;;;-0.99;97.80;100056.08;99564;1351;22721;-31
2022/12/20 04:12:27;;;;;;;40.20;14.70;;;;;;;-0.87;97.59;100056.64;99558;1354;23087;-30
2022/12/20 04:14:53;;;;;;;30.30;11.90;;;;;;;-0.88;97.23;100051.08;99473;1350;23306;-31
2022/12/20 04:17:18;;;;;;;30.10;12.00;;;;;;;-0.87;97.14;100045.59;99468;1363;25385;-34
2022/12/20 04:19:44;;;;;;;31.60;11.10;;;;;;;-0.88;97.39;100046.33;99092;1369;22812;-34
2022/12/20 04:22:09;;;;;;;30.70;13.10;;;;;;;-0.90;97.41;100047.36;99422;1350;23050;-30
2022/12/20 04:24:35;;;;;;;27.10;10.00;;;;;;;-0.86;97.43;100052.73;99492;1366;24786;-35
2022/12/20 04:27:00;;;;;;;28.10;10.10;;;;;;;-0.93;97.87;100053.23;99075;1354;23032;-34
2022/12/20 04:29:26;;;;;;;31.70;10.60;;;;;;;-0.95;97.85;100059.46;99477;1350;24570;-30
2022/12/20 04:31:51;;;;;;;36.40;14.40;;;;;;;-0.98;97.96;100063.41;99525;1357;22828;-35
2022/12/20 04:34:17;;;;;;;24.20;10.00;;;;;;;-0.98;97.71;100063.36;99468;1353;23090;-35
2022/12/20 04:36:43;;;;;;;24.60;11.30;;;;;;;-0.97;97.63;100064.01;99532;1354;25350;-30
2022/12/20 05:14:40;;;;;;;29.80;12.70;;;;;;;-0.97;98.86;100051.56;99292;1369;558230;-33
2022/12/20 05:17:06;;;;;;;41.20;14.30;;;;;;;-0.93;98.83;100051.79;98943;1369;455178;-33
2022/12/20 05:19:31;;;;;;;36.40;12.90;;;;;;;-0.97;98.82;100052.21;99543;1351;22952;-30
2022/12/20 05:26:55;;;;;;;38.10;12.70;;;;;;;-0.92;98.54;100051.88;99477;1350;24425;-30
2022/12/20 05:29:20;;;;;;;25.80;10.60;;;;;;;-0.96;98.87;100051.65;99445;1350;22736;-33
2022/12/20 05:31:46;;;;;;;25.80;11.10;;;;;;;-0.83;98.36;100039.85;99587;1350;25392;-30
2022/12/20 05:34:11;;;;;;;35.50;10.70;;;;;;;-0.84;97.99;100033.59;99533;1350;22719;-33
2022/12/20 05:36:37;;;;;;;37.20;12.40;;;;;;;-0.84;97.71;100033.08;99569;1347;23066;-34
2022/12/20 05:39:02;;;;;;;32.40;13.10;;;;;;;-0.82;97.51;100036.48;99458;1349;23176;-33
2022/12/20 05:41:28;;;;;;;27.70;9.40;;;;;;;-0.79;97.26;100042.55;99486;1351;22730;-34
2022/12/20 05:43:53;;;;;;;32.50;12.90;;;;;;;-0.89;97.82;100041.69;99389;1350;22726;-33
2022/12/20 05:46:19;;;;;;;31.60;11.60;;;;;;;-0.87;97.96;100047.33;99501;1350;22822;-30
2022/12/20 05:48:45;;;;;;;37.50;12.60;;;;;;;-0.84;98.04;100054.15;99478;1350;24325;-30
2022/12/20 05:51:10;;;;;;;26.00;12.80;;;;;;;-0.84;98.02;100062.77;99499;1368;24748;-34
2022/12/20 05:53:36;;;;;;;32.20;13.10;;;;;;;-0.83;98.49;100063.02;99488;1349;25081;-34
2022/12/20 05:56:02;;;;;;;25.20;10.70;;;;;;;-0.78;98.52;100054.08;99515;1350;22590;-34
2022/12/20 05:58:27;;;;;;;31.60;10.50;;;;;;;-0.79;98.54;100047.27;99434;1353;23192;-33
2022/12/20 06:00:53;;;;;;;30.50;14.10;;;;;;;-0.76;98.08;100046.55;99460;1350;22852;-36
2022/12/20 06:03:18;;;;;;;41.50;15.10;;;;;;;-0.80;98.17;100043.17;99572;1349;22586;-30
2022/12/20 06:05:44;;;;;;;37.20;13.60;;;;;;;-0.68;98.20;100053.23;99495;1350;22713;-30
2022/12/20 06:08:10;;;;;;;22.30;8.20;;;;;;;-0.69;97.74;100053.27;99485;1350;22844;-34
2022/12/20 06:10:36;;;;;;;37.50;14.10;;;;;;;-0.68;97.72;100059.38;99463;1350;22844;-33
2022/12/20 06:13:02;;;;;;;21.00;9.50;;;;;;;-0.61;97.17;100063.11;99480;1350;22606;-30
2022/12/20 06:15:28;;;;;;;27.50;11.40;;;;;;;-0.62;96.97;100061.89;99549;1369;23020;-34
2022/12/20 06:17:54;;;;;;;37.70;12.50;;;;;;;-0.69;97.21;100074.75;99469;1369;24460;-34
2022/12/20 06:20:19;;;;;;;32.20;12.50;;;;;;;-0.78;97.69;100071.65;99482;1351;22701;-34
2022/12/20 06:22:45;;;;;;;29.90;12.40;;;;;;;-0.75;97.79;100071.32;99078;1363;22600;-30
2022/12/20 06:25:11;;;;;;;37.00;15.10;;;;;;;-0.79;97.65;100072.46;99717;1350;22595;-30
2022/12/20 06:27:37;;;;;;;29.20;11.50;;;;;;;-0.80;97.99;100070.19;99545;1366;23150;-34
2022/12/20 06:30:03;;;;;;;31.30;12.60;;;;;;;-0.79;97.98;100074.17;99559;1366;22845;-34
2022/12/20 06:32:29;;;;;;;32.10;11.60;;;;;;;-0.78;97.96;100061.28;98925;1363;22592;-32
2022/12/20 06:34:54;;;;;;;30.10;10.80;;;;;;;-0.85;98.34;100054.21;99538;1350;22598;-33
2022/12/20 06:37:20;;;;;;;24.30;9.40;;;;;;;-0.89;98.95;100045.21;99523;1350;22842;-32
2022/12/20 06:39:45;;;;;;;41.10;13.90;;;;;;;-0.88;99.02;100039.84;99501;1350;25695;-28
2022/12/20 06:42:11;;;;;;;35.00;13.30;;;;;;;-0.90;99.31;100044.44;99510;1341;22723;-32
2022/12/20 06:44:37;;;;;;;34.20;12.80;;;;;;;-0.90;99.53;100049.34;99538;1346;23083;-28
2022/12/20 06:47:02;;;;;;;30.20;14.20;;;;;;;-0.92;99.75;100059.14;99590;1349;22907;-28
2022/12/20 06:49:28;;;;;;;35.10;13.50;;;;;;;-0.82;99.65;100059.77;99472;1369;22622;-34
2022/12/20 06:51:54;;;;;;;35.50;16.10;;;;;;;-0.80;99.68;100059.88;99549;1350;22738;-30
2022/12/20 06:54:20;;;;;;;35.80;12.90;;;;;;;-0.80;99.67;100054.88;99487;1350;22620;-28
2022/12/20 06:56:45;;;;;;;37.50;12.30;;;;;;;-0.76;99.63;100054.11;99516;1350;22797;-30
2022/12/20 06:59:11;;;;;;;28.90;11.60;;;;;;;-0.73;99.25;100053.52;99399;1352;22844;-32
2022/12/20 07:01:37;;;;;;;39.80;13.20;;;;;;;-0.71;98.91;100050.44;99558;1369;22610;-27
2022/12/20 07:04:03;;;;;;;29.80;13.60;;;;;;;-0.73;99.18;100037.91;99551;1347;25380;-34
2022/12/20 07:06:28;;;;;;;37.20;15.10;;;;;;;-0.72;99.51;100032.70;99569;1350;22918;-32
2022/12/20 07:08:54;;;;;;;21.20;7.70;;;;;;;-0.67;99.71;100025.55;99451;1366;23240;-30
2022/12/20 07:11:21;;;;;;;26.90;10.40;;;;;;;-0.63;99.45;100019.76;99380;1344;22847;-34
2022/12/20 07:13:46;;;;;;;44.10;16.80;;;;;;;-0.58;99.01;100007.82;99399;1365;24366;-31
2022/12/20 07:16:12;;;;;;;45.00;13.50;;;;;;;-0.59;99.16;100013.88;99490;1349;24537;-33
2022/12/20 07:18:37;;;;;;;28.70;12.60;;;;;;;-0.62;99.13;100016.88;99439;1350;22848;-34
2022/12/20 07:21:04;;;;;;;34.50;12.30;;;;;;;-0.57;99.35;100022.50;99544;1369;23486;-34
2022/12/20 07:23:30;;;;;;;30.60;12.80;;;;;;;-0.52;99.45;100026.02;99484;1350;23007;-30
2022/12/20 07:25:56;;;;;;;38.90;14.20;;;;;;;-0.43;99.04;100019.95;99496;1337;23188;-33
2022/12/20 07:28:22;;;;;;;33.00;14.40;;;;;;;-0.35;98.18;100017.40;99389;1360;22712;-29
2022/12/20 07:30:48;;;;;;;24.40;11.60;;;;;;;-0.40;98.38;100022.86;99397;1360;22658;-33
2022/12/20 07:33:13;;;;;;;30.30;11.00;;;;;;;-0.35;98.21;100030.38;99568;1350;22991;-33
2022/12/20 07:35:39;;;;;;;29.50;12.30;;;;;;;-0.34;98.23;100030.68;99369;1369;22716;-34
2022/12/20 07:38:05;;;;;;;36.60;12.50;;;;;;;-0.29;98.72;100042.27;99364;1350;22611;-30
2022/12/20 07:40:31;;;;;;;44.90;15.80;;;;;;;-0.17;98.17;100043.17;99476;1349;22636;-31
2022/12/20 07:42:57;;;;;;;31.00;12.10;;;;;;;-0.19;98.10;100052.66;99507;1357;22603;-31
2022/12/20 07:45:22;;;;;;;27.40;13.40;;;;;;;-0.07;97.29;100052.64;99452;1349;22724;-35
2022/12/20 07:47:48;;;;;;;33.40;12.50;;;;;;;-0.11;97.91;100050.86;99692;1349;22722;-30
2022/12/20 07:50:13;;;;;;;38.80;15.30;;;;;;;-0.01;97.72;100044.65;99591;1367;23204;-30
2022/12/20 07:52:39;;;;;;;32.20;13.10;;;;;;;0.05;97.18;100039.63;99459;1369;23203;-30
2022/12/20 07:55:06;;;;;;;40.00;14.40;;;;;;;0.04;97.12;100034.94;99518;1350;22701;-35
2022/12/20 07:57:36;;;;;;;32.50;12.30;;;;;;;0.05;97.46;100035.41;99390;1351;22714;-30
2022/12/20 08:00:02;;;;;;;29.50;12.80;;;;;;;0.10;96.97;100029.95;99551;1353;22917;-29
2022/12/20 08:02:37;;;;;;;38.00;16.10;;;;;;;0.10;97.29;100031.34;99471;1350;22719;-30
2022/12/20 08:05:04;;;;;;;22.60;10.00;;;;;;;0.22;96.34;100034.45;99625;1361;22603;-33
2022/12/20 08:07:29;;;;;;;45.60;14.10;;;;;;;0.21;96.11;100032.08;99152;1359;23208;-33
2022/12/20 08:09:55;;;;;;;40.20;14.30;;;;;;;0.16;96.01;100021.91;99441;1369;22710;-29
2022/12/20 08:12:21;;;;;;;43.40;19.00;;;;;;;0.16;96.37;100020.52;99414;1367;22719;-29
2022/12/20 08:14:46;;;;;;;46.40;17.00;;;;;;;0.21;96.50;100016.77;99426;1369;25422;-34
2022/12/20 08:17:12;;;;;;;28.10;11.80;;;;;;;0.22;96.79;100016.33;99570;1346;22632;-34
2022/12/20 08:19:37;;;;;;;36.20;12.90;;;;;;;0.32;96.67;100013.63;99673;1349;22721;-34
2022/12/20 08:22:05;;;;;;;32.20;13.30;;;;;;;0.32;96.79;100008.94;99435;1366;22759;-31
2022/12/20 08:24:32;;;;;;;28.60;11.80;;;;;;;0.39;96.46;100008.55;99448;1350;23112;-29
2022/12/20 08:26:57;;;;;;;40.10;12.50;;;;;;;0.49;95.43;100007.08;99564;1366;23085;-33
2022/12/20 08:29:23;;;;;;;26.00;10.70;;;;;;;0.40;95.79;100006.52;99550;1350;23306;-34
2022/12/20 08:31:48;;;;;;;;;;;;;;;0.45;96.02;100013.39;99510;1350;22857;-29
2022/12/20 08:34:14;;;;;;;37.00;14.50;;;;;;;0.53;96.14;100018.06;99347;1357;22721;-29
2022/12/20 08:36:39;;;;;;;141.30;51.80;;;;;;;0.65;95.46;100018.23;99512;1369;24404;-30
2022/12/20 08:39:06;;;;;;;87.70;28.30;;;;;;;0.71;95.20;100021.79;99391;1357;23002;-29
2022/12/20 08:41:33;;;;;;;93.40;32.90;;;;;;;0.78;94.75;100019.69;99556;1369;22671;-31
2022/12/20 08:43:59;;;;;;;78.60;21.80;;;;;;;0.91;93.75;100025.55;99543;1369;23206;-34
2022/12/20 08:46:24;;;;;;;155.00;41.10;;;;;;;0.91;93.63;100023.04;99508;1349;25383;-30
2022/12/20 08:48:50;;;;;;;385.80;93.80;;;;;;;0.95;94.00;100016.41;99501;1350;22713;-29
2022/12/20 08:51:15;;;;;;;100.10;36.60;;;;;;;1.00;93.98;100017.42;99461;1350;23078;-34
2022/12/20 08:53:41;;;;;;;178.20;55.80;;;;;;;1.10;93.87;100009.74;99506;1350;22736;-33
2022/12/20 08:56:09;;;;;;;174.80;53.20;;;;;;;1.15;93.74;100010.77;99552;1350;22851;-34
2022/12/20 08:58:35;;;;;;;179.00;63.70;;;;;;;1.20;93.13;100009.48;99478;1369;22843;-34
2022/12/20 09:01:03;;;;;;;210.80;66.10;;;;;;;1.22;92.52;100006.48;99477;1350;23117;-30
2022/12/20 09:03:29;;;;;;;86.70;29.40;;;;;;;1.25;92.39;100013.48;99471;1354;22737;-30
2022/12/20 09:05:55;;;;;;;60.00;18.70;;;;;;;1.23;92.66;100022.17;99529;1367;24325;-30
2022/12/20 09:08:21;;;;;;;44.60;16.10;;;;;;;1.35;92.24;100020.49;99449;1350;22730;-33
2022/12/20 09:10:46;;;;;;;31.80;11.20;;;;;;;1.34;91.29;100025.98;99513;1367;23028;-28
2022/12/20 09:13:12;;;;;;;42.80;13.80;;;;;;;1.25;90.50;100027.94;99515;1369;24241;-28
2022/12/20 09:15:37;;;;;;;30.00;12.50;;;;;;;1.28;91.31;100022.79;99042;1363;22856;-27
2022/12/20 09:18:04;;;;;;;50.10;16.50;;;;;;;1.35;91.32;100023.23;99549;1354;22658;-28
2022/12/20 09:20:30;;;;;;;63.40;18.20;;;;;;;1.32;92.05;100020.53;99588;1359;24498;-32
2022/12/20 09:22:57;;;;;;;45.40;14.80;;;;;;;1.38;92.00;100018.08;99508;1349;22940;-28
2022/12/20 09:25:23;;;;;;;46.00;12.90;;;;;;;1.42;92.02;100020.48;99519;1350;22609;-29
2022/12/20 09:27:49;;;;;;;416.00;117.70;;;;;;;1.47;91.79;100017.41;99240;1351;23037;-32
2022/12/20 09:30:15;;;;;;;238.60;55.50;;;;;;;1.48;92.36;100012.95;99474;1369;22715;-33
2022/12/20 09:32:41;;;;;;;25.20;11.80;;;;;;;1.54;93.03;100012.11;99577;1349;25457;-33
2022/12/20 09:35:06;;;;;;;36.30;11.90;;;;;;;1.56;92.48;100004.48;99535;1350;23174;-28
2022/12/20 09:37:32;;;;;;;52.20;15.00;;;;;;;1.63;91.28;99995.27;99468;1350;22856;-32
2022/12/20 09:39:58;;;;;;;38.30;13.60;;;;;;;1.57;91.73;99987.96;99634;1349;22725;-28
2022/12/20 09:42:25;;;;;;;62.60;16.80;;;;;;;1.56;92.23;100001.13;99524;1341;23036;-29
2022/12/20 09:44:51;;;;;;;32.90;12.50;;;;;;;1.61;91.99;100003.91;99618;1369;22705;-29
2022/12/20 09:47:19;;;;;;;31.20;12.10;;;;;;;1.53;92.30;100006.54;99441;1352;23252;-33
2022/12/20 09:49:50;;;;;;;53.90;18.00;;;;;;;1.57;92.66;100004.39;99448;1369;22596;-30
2022/12/20 09:52:33;;;;;;;423.80;133.00;;;;;;;1.55;92.69;99996.94;99601;1350;22722;-29
2022/12/20 09:55:06;;;;;;;39.30;17.10;;;;;;;1.63;91.98;99993.00;99607;1350;22722;-33
2022/12/20 09:57:39;;;;;;;51.90;15.70;;;;;;;1.62;91.46;99993.94;99630;1367;22767;-29
2022/12/20 10:00:12;;;;;;;28.40;12.10;;;;;;;1.64;91.17;99991.45;99474;1341;22969;-33
2022/12/20 10:02:37;;;;;;;36.40;11.90;;;;;;;1.67;91.13;99986.14;99498;1366;22611;-30
2022/12/20 10:05:03;;;;;;;33.70;13.00;;;;;;;1.75;91.18;99987.41;99521;1349;22714;-29
2022/12/20 10:07:38;;;;;;;41.00;16.00;;;;;;;1.99;90.25;99985.13;99539;1350;22645;-29
2022/12/20 10:10:28;;;;;;;21.50;9.80;;;;;;;2.05;89.86;99978.70;99552;1352;25421;-34
2022/12/20 10:13:17;;;;;;;52.30;12.60;;;;;;;2.20;89.59;99976.23;99510;1350;22594;-33
2022/12/20 10:15:50;;;;;;;94.30;21.00;;;;;;;2.52;88.24;99971.09;99389;1369;22758;-30
2022/12/20 10:18:25;;;;;;;92.30;37.00;;;;;;;2.64;87.80;99962.61;99560;1350;22818;-34
2022/12/20 10:21:10;;;;;;;97.30;35.20;;;;;;;3.11;86.60;99955.89;99462;1350;22696;-33
2022/12/20 10:23:43;;;;;;;34.30;12.60;;;;;;;3.18;83.87;99957.92;99324;1358;23058;-29
2022/12/20 10:26:10;;;;;;;37.60;14.60;;;;;;;3.26;82.72;99948.52;99504;1350;22598;-33
2022/12/20 10:28:36;;;;;;;126.10;37.50;;;;;;;3.25;82.88;99943.15;99493;1350;23209;-29
2022/12/20 10:31:04;;;;;;;63.90;17.80;;;;;;;3.38;82.31;99938.77;99501;1345;22701;-29
2022/12/20 10:33:30;;;;;;;60.70;22.10;;;;;;;3.42;81.84;99929.63;99517;1350;22722;-36
2022/12/20 10:36:17;;;;;;;41.10;18.40;;;;;;;3.36;81.23;99931.20;99519;1350;22613;-34
2022/12/20 10:38:44;;;;;;;38.60;16.80;;;;;;;3.20;81.64;99936.16;99482;1367;22723;-28
2022/12/20 10:41:15;;;;;;;34.50;13.40;;;;;;;3.25;83.11;99932.52;99481;1350;23131;-34
2022/12/20 10:43:43;;;;;;;48.50;20.60;;;;;;;3.35;81.96;99928.98;99352;1360;25428;-30
2022/12/20 10:46:09;;;;;;;35.50;16.60;;;;;;;3.39;82.87;99932.67;99571;1362;22844;-30
2022/12/20 10:48:36;;;;;;;27.80;13.90;;;;;;;3.80;83.81;99929.31;99538;1350;22607;-30
2022/12/20 10:51:07;;;;;;;28.50;12.50;;;;;;;4.39;81.35;99930.81;99494;1369;22625;-30
2022/12/20 10:53:33;;;;;;;67.50;25.10;;;;;;;4.27;79.03;99925.52;99568;1341;22851;-30
2022/12/20 10:56:18;;;;;;;33.70;15.90;;;;;;;4.20;78.80;99919.94;99376;1354;22848;-34
2022/12/20 10:58:52;;;;;;;23.70;11.50;;;;;;;4.07;77.20;99911.45;99546;1366;22730;-31
2022/12/20 11:01:18;;;;;;;22.50;9.00;;;;;;;3.80;78.24;99928.32;99558;1356;24420;-35
2022/12/20 11:04:00;;;;;;;24.50;12.50;;;;;;;3.72;76.71;99929.00;99517;1349;22730;-33
2022/12/20 11:44:24;;;;;;;29.10;14.80;;;;;;;2.37;83.41;99932.08;99287;1370;556618;-35
2022/12/20 11:47:15;;;;;;;33.30;11.90;;;;;;;2.15;83.86;99916.41;99257;1354;435101;-29
2022/12/20 11:49:59;;;;;;;27.40;12.40;;;;;;;2.19;84.63;99919.45;99401;1350;23071;-29
2022/12/20 11:52:42;;;;;;;28.30;9.50;;;;;;;2.20;84.02;99920.07;99486;1347;24840;-33
2022/12/20 11:55:31;;;;;;;26.60;11.60;;;;;;;2.17;84.17;99920.33;99470;1349;22721;-29
2022/12/20 11:58:15;;;;;;;28.10;12.30;;;;;;;2.08;84.76;99916.88;99449;1354;22848;-29
2022/12/20 12:00:43;;;;;;;25.50;12.50;;;;;;;2.12;85.21;99917.06;99523;1349;22653;-33
2022/12/20 12:03:13;;;;;;;19.90;9.30;;;;;;;2.02;86.25;99915.63;99554;1360;24321;-30
2022/12/20 12:05:42;;;;;;;34.30;16.10;;;;;;;2.16;85.20;99917.06;99479;1350;25452;-29
2022/12/20 12:08:13;;;;;;;23.70;11.00;;;;;;;2.14;84.42;99908.61;99628;1350;22586;-34
2022/12/20 12:10:41;;;;;;;37.40;14.40;;;;;;;2.06;84.86;99909.55;99488;1357;24418;-30
2022/12/20 12:16:07;;;;;;;24.10;10.90;;;;;;;2.02;86.31;99894.08;99377;1363;22710;-34
2022/12/20 12:18:34;;;;;;;28.40;14.20;;;;;;;2.09;86.69;99884.97;99499;1350;24797;-33
2022/12/20 12:21:19;;;;;;;25.60;12.20;;;;;;;2.24;86.52;99881.17;99480;1368;22685;-34
2022/12/20 12:24:05;;;;;;;21.70;11.00;;;;;;;2.29;85.68;99885.02;99606;1350;23028;-30
2022/12/20 12:26:35;;;;;;;40.50;14.90;;;;;;;2.27;86.01;99892.45;99551;1364;23104;-34
2022/12/20 12:29:03;;;;;;;31.40;13.80;;;;;;;2.41;85.56;99892.82;99582;1367;22732;-33
2022/12/20 12:31:50;;;;;;;30.90;12.20;;;;;;;2.43;84.30;99899.36;99542;1349;23194;-33
2022/12/20 12:34:47;;;;;;;34.40;12.90;;;;;;;2.38;83.96;99888.73;99572;1349;24321;-30
2022/12/20 12:37:36;;;;;;;25.10;10.30;;;;;;;2.34;83.71;99884.23;99520;1345;23189;-29
2022/12/20 12:40:19;;;;;;;25.90;11.00;;;;;;;2.19;84.01;99872.50;99461;1349;23073;-28